Time;durP1;ratioP1;P1;durP2;ratioP2;P2;SDS_P1;SDS_P2;PMS_P1;PMS_P2;Temp;Humidity;BMP_temperature;BMP_pressure;BME280_temperature;BME280_humidity;BME280_pressure;Samples;Min_cycle;Max_cycle;Signal;HPM_P1;HPM_P2
2023/07/14 00:01:27;;;;;;;15.70;5.30;;;;;;;;;;5042745;28;20040;-71
2023/07/14 00:03:54;;;;;;;11.45;5.07;;;;;;;;;;5045927;28;20048;-72
2023/07/14 00:06:20;;;;;;;20.52;5.65;;;;;;;;;;5042335;28;20457;-72
2023/07/14 00:08:47;;;;;;;12.40;5.50;;;;;;;;;;5042868;28;20032;-72
2023/07/14 00:11:14;;;;;;;16.80;5.65;;;;;;;;;;5043193;28;20020;-73
2023/07/14 00:13:41;;;;;;;18.35;6.30;;;;;;;;;;5061449;28;20658;-72
2023/07/14 00:16:12;;;;;;;17.73;5.07;;;;;;;;;;5035392;28;20027;-72
2023/07/14 00:18:38;;;;;;;13.85;5.70;;;;;;;;;;5060440;28;20038;-72
2023/07/14 00:21:04;;;;;;;14.27;4.97;;;;;;;;;;5039523;28;20390;-73
2023/07/14 00:23:49;;;;;;;12.68;5.68;;;;;;;;;;5038773;28;20482;-72
2023/07/14 00:26:17;;;;;;;10.93;5.07;;;;;;;;;;5042570;28;20029;-72
2023/07/14 00:28:43;;;;;;;14.38;5.32;;;;;;;;;;5049610;28;20128;-72
2023/07/14 00:31:12;;;;;;;15.50;5.00;;;;;;;;;;5050632;28;20029;-73
2023/07/14 00:33:39;;;;;;;13.77;5.10;;;;;;;;;;5045179;28;20021;-73
2023/07/14 00:36:07;;;;;;;14.30;6.60;;;;;;;;;;5063926;28;20051;-72
2023/07/14 00:38:36;;;;;;;18.48;6.53;;;;;;;;;;5062519;28;20025;-73
2023/07/14 00:41:02;;;;;;;17.15;5.75;;;;;;;;;;5058155;28;20551;-72
2023/07/14 00:43:30;;;;;;;19.95;5.78;;;;;;;;;;5061889;28;20114;-73
2023/07/14 00:45:57;;;;;;;17.55;5.47;;;;;;;;;;5046539;28;20421;-73
2023/07/14 00:48:25;;;;;;;24.45;5.85;;;;;;;;;;5042888;28;20029;-73
2023/07/14 00:50:51;;;;;;;16.35;5.72;;;;;;;;;;5062591;28;20029;-73
2023/07/14 00:53:23;;;;;;;12.75;5.32;;;;;;;;;;5056734;28;20023;-72
2023/07/14 00:55:52;;;;;;;26.10;5.68;;;;;;;;;;5044948;28;20061;-72
2023/07/14 00:58:21;;;;;;;12.38;5.25;;;;;;;;;;5039935;28;20060;-72
2023/07/14 01:01:22;;;;;;;11.77;4.95;;;;;;;;;;5040575;28;20029;-73
2023/07/14 01:03:50;;;;;;;12.15;5.63;;;;;;;;;;4976514;28;20058;-73
2023/07/14 01:06:19;;;;;;;18.90;5.70;;;;;;;;;;5027339;28;20090;-72
2023/07/14 01:08:54;;;;;;;16.45;5.90;;;;;;;;;;5056266;28;20033;-70
2023/07/14 01:11:23;;;;;;;13.55;5.85;;;;;;;;;;5044376;28;20047;-73
2023/07/14 01:13:49;;;;;;;15.32;6.30;;;;;;;;;;5040128;28;20025;-74
2023/07/14 01:16:15;;;;;;;19.08;5.80;;;;;;;;;;5044374;28;20033;-71
2023/07/14 01:18:43;;;;;;;22.38;5.68;;;;;;;;;;5041998;28;20045;-71
2023/07/14 01:21:09;;;;;;;13.43;5.95;;;;;;;;;;5044371;28;20032;-72
2023/07/14 01:23:35;;;;;;;18.40;6.78;;;;;;;;;;5039635;28;20082;-72
2023/07/14 01:26:25;;;;;;;17.52;5.97;;;;;;;;;;5046415;28;20082;-76
2023/07/14 01:28:51;;;;;;;19.77;6.78;;;;;;;;;;5036009;28;20117;-72
2023/07/14 01:31:22;;;;;;;20.05;6.18;;;;;;;;;;5046986;28;20086;-72
2023/07/14 01:33:50;;;;;;;12.82;5.85;;;;;;;;;;5046612;28;20069;-72
2023/07/14 01:36:16;;;;;;;17.02;5.53;;;;;;;;;;5034513;28;20383;-72
2023/07/14 01:38:43;;;;;;;15.55;6.07;;;;;;;;;;5043796;28;20037;-72
2023/07/14 01:41:10;;;;;;;15.73;6.68;;;;;;;;;;5041563;28;20132;-72
2023/07/14 01:43:36;;;;;;;22.42;7.38;;;;;;;;;;5043480;28;20029;-71
2023/07/14 01:46:07;;;;;;;23.67;7.65;;;;;;;;;;5040312;28;20013;-72
2023/07/14 01:48:45;;;;;;;19.27;7.57;;;;;;;;;;5041722;28;20021;-72
2023/07/14 01:51:12;;;;;;;23.48;9.25;;;;;;;;;;5046741;28;20025;-72
2023/07/14 01:53:45;;;;;;;16.40;6.85;;;;;;;;;;5046844;28;20021;-72
2023/07/14 01:56:14;;;;;;;16.50;6.78;;;;;;;;;;5048433;28;20056;-72
2023/07/14 01:58:49;;;;;;;16.23;6.55;;;;;;;;;;5051650;28;20025;-71
2023/07/14 02:01:16;;;;;;;18.10;7.05;;;;;;;;;;5047921;28;20032;-73
2023/07/14 02:03:45;;;;;;;20.20;6.90;;;;;;;;;;5044792;28;20067;-70
2023/07/14 02:06:11;;;;;;;21.35;6.55;;;;;;;;;;5043844;28;20060;-72
2023/07/14 02:08:37;;;;;;;17.30;7.10;;;;;;;;;;5041274;28;20031;-72
2023/07/14 02:11:04;;;;;;;17.35;6.70;;;;;;;;;;5047877;28;20228;-74
2023/07/14 02:13:31;;;;;;;18.20;7.10;;;;;;;;;;5043403;28;20017;-72
2023/07/14 02:15:57;;;;;;;16.23;6.53;;;;;;;;;;5043543;28;20044;-72
2023/07/14 02:18:28;;;;;;;22.42;9.70;;;;;;;;;;5049902;28;21118;-72
2023/07/14 02:20:55;;;;;;;15.25;6.72;;;;;;;;;;5040803;28;20029;-73
2023/07/14 02:23:22;;;;;;;19.10;7.07;;;;;;;;;;5041711;28;20036;-72
2023/07/14 02:26:03;;;;;;;23.05;8.25;;;;;;;;;;5046950;28;20044;-73
2023/07/14 02:28:29;;;;;;;20.33;6.90;;;;;;;;;;5047265;28;20025;-72
2023/07/14 02:30:59;;;;;;;23.08;7.80;;;;;;;;;;5058319;28;20045;-72
2023/07/14 02:33:27;;;;;;;14.35;6.38;;;;;;;;;;5040590;28;20057;-72
2023/07/14 02:36:02;;;;;;;20.15;7.72;;;;;;;;;;5063332;28;20020;-72
2023/07/14 02:38:28;;;;;;;18.58;7.97;;;;;;;;;;5051007;28;20021;-71
2023/07/14 02:41:03;;;;;;;20.15;8.35;;;;;;;;;;5044941;28;20037;-71
2023/07/14 02:43:29;;;;;;;19.65;9.73;;;;;;;;;;5042930;28;20037;-72
2023/07/14 02:45:58;;;;;;;20.27;8.82;;;;;;;;;;5042778;28;20095;-72
2023/07/14 02:48:33;;;;;;;22.15;9.02;;;;;;;;;;5047881;28;20021;-72
2023/07/14 02:51:00;;;;;;;17.30;9.10;;;;;;;;;;5045123;28;20052;-72
2023/07/14 02:53:26;;;;;;;16.23;9.98;;;;;;;;;;5039872;28;20025;-71
2023/07/14 02:55:52;;;;;;;17.42;8.90;;;;;;;;;;5066927;28;20029;-72
2023/07/14 02:58:18;;;;;;;16.45;9.40;;;;;;;;;;5050115;28;20123;-72
2023/07/14 03:00:45;;;;;;;20.95;9.25;;;;;;;;;;5026151;28;20037;-73
2023/07/14 03:03:12;;;;;;;21.75;9.68;;;;;;;;;;5063714;28;20044;-71
2023/07/14 03:05:38;;;;;;;19.58;9.48;;;;;;;;;;5049225;28;20025;-72
2023/07/14 03:08:07;;;;;;;18.23;8.85;;;;;;;;;;5041646;28;20083;-74
2023/07/14 03:10:35;;;;;;;13.52;9.02;;;;;;;;;;5055275;28;20037;-72
2023/07/14 03:13:01;;;;;;;18.67;9.20;;;;;;;;;;5043268;28;20022;-72
2023/07/14 03:15:27;;;;;;;22.13;9.30;;;;;;;;;;5048149;28;20036;-72
2023/07/14 03:17:54;;;;;;;17.10;9.80;;;;;;;;;;5059373;28;20049;-73
2023/07/14 03:20:20;;;;;;;18.25;9.25;;;;;;;;;;5043343;28;20039;-72
2023/07/14 03:22:46;;;;;;;17.85;10.02;;;;;;;;;;5043832;28;20035;-72
2023/07/14 03:25:13;;;;;;;13.93;8.45;;;;;;;;;;5044557;28;20052;-73
2023/07/14 03:27:40;;;;;;;19.90;8.43;;;;;;;;;;5046075;28;20075;-72
2023/07/14 03:30:07;;;;;;;15.15;8.05;;;;;;;;;;5022783;28;20509;-72
2023/07/14 03:32:33;;;;;;;16.35;9.32;;;;;;;;;;5045404;28;20033;-72
2023/07/14 03:34:59;;;;;;;20.80;8.05;;;;;;;;;;5041850;28;20163;-72
2023/07/14 03:37:25;;;;;;;22.77;9.00;;;;;;;;;;5042841;28;20029;-73
2023/07/14 03:39:52;;;;;;;20.90;10.02;;;;;;;;;;5041264;28;20029;-72
2023/07/14 03:42:18;;;;;;;17.98;9.52;;;;;;;;;;5043907;28;20041;-73
2023/07/14 03:44:44;;;;;;;18.48;8.82;;;;;;;;;;5027808;28;20033;-71
2023/07/14 03:47:10;;;;;;;20.65;9.32;;;;;;;;;;5046532;28;20678;-72
2023/07/14 03:49:36;;;;;;;20.63;9.30;;;;;;;;;;5046420;28;20067;-72
2023/07/14 03:52:03;;;;;;;16.70;7.90;;;;;;;;;;5047872;28;20053;-73
2023/07/14 03:54:30;;;;;;;13.30;7.60;;;;;;;;;;5049275;28;20037;-71
2023/07/14 03:56:58;;;;;;;18.38;8.10;;;;;;;;;;5049395;28;20064;-73
2023/07/14 03:59:25;;;;;;;12.93;7.18;;;;;;;;;;5041795;28;20489;-71
2023/07/14 04:01:51;;;;;;;13.38;6.68;;;;;;;;;;5067645;28;20025;-72
2023/07/14 04:04:18;;;;;;;12.25;6.70;;;;;;;;;;5045566;28;20025;-73
2023/07/14 04:06:44;;;;;;;11.93;6.80;;;;;;;;;;5047878;28;20025;-72
2023/07/14 04:09:11;;;;;;;16.45;6.88;;;;;;;;;;5043610;28;20044;-72
2023/07/14 04:11:37;;;;;;;19.02;6.88;;;;;;;;;;5047415;28;20051;-71
2023/07/14 04:14:04;;;;;;;14.02;6.82;;;;;;;;;;5045423;28;20039;-72
2023/07/14 04:16:30;;;;;;;15.52;6.28;;;;;;;;;;5043443;28;20036;-72
2023/07/14 04:18:56;;;;;;;19.25;7.22;;;;;;;;;;5040782;28;20052;-73
2023/07/14 04:21:27;;;;;;;17.83;6.82;;;;;;;;;;5040896;28;20073;-72
2023/07/14 04:23:53;;;;;;;16.70;6.97;;;;;;;;;;5036847;28;20060;-72
2023/07/14 04:26:19;;;;;;;15.88;6.40;;;;;;;;;;5045462;28;20558;-72
2023/07/14 04:28:46;;;;;;;14.70;6.15;;;;;;;;;;5045001;28;20047;-72
2023/07/14 04:31:12;;;;;;;11.82;5.97;;;;;;;;;;5041760;28;20033;-72
2023/07/14 04:33:38;;;;;;;16.10;5.90;;;;;;;;;;5057125;28;20041;-71
2023/07/14 04:36:05;;;;;;;16.13;6.13;;;;;;;;;;5051278;28;20032;-72
2023/07/14 04:38:31;;;;;;;12.90;5.65;;;;;;;;;;5037373;28;20072;-72
2023/07/14 04:40:58;;;;;;;11.57;5.43;;;;;;;;;;5039640;28;20055;-72
2023/07/14 04:43:24;;;;;;;12.63;5.25;;;;;;;;;;5040002;28;20037;-72
2023/07/14 04:45:51;;;;;;;12.48;5.03;;;;;;;;;;5037379;28;20037;-73
2023/07/14 04:48:18;;;;;;;13.82;5.60;;;;;;;;;;5037089;28;20037;-72
2023/07/14 04:50:47;;;;;;;14.15;5.50;;;;;;;;;;5059346;28;20060;-73
2023/07/14 04:53:15;;;;;;;12.65;4.85;;;;;;;;;;5056649;28;20040;-73
2023/07/14 04:55:44;;;;;;;14.05;5.55;;;;;;;;;;5054607;28;20025;-73
2023/07/14 04:58:11;;;;;;;14.98;5.30;;;;;;;;;;5058941;28;20024;-71
2023/07/14 05:00:37;;;;;;;13.05;4.88;;;;;;;;;;5059013;28;20447;-70
2023/07/14 05:03:05;;;;;;;11.38;4.70;;;;;;;;;;5067036;28;20029;-72
2023/07/14 05:05:31;;;;;;;15.75;5.38;;;;;;;;;;5066760;28;20029;-72
2023/07/14 05:07:58;;;;;;;13.77;4.30;;;;;;;;;;5060390;28;20028;-71
2023/07/14 05:10:25;;;;;;;12.73;4.65;;;;;;;;;;5066607;28;20025;-71
2023/07/14 05:12:55;;;;;;;11.48;4.15;;;;;;;;;;5047035;28;20037;-73
2023/07/14 05:15:22;;;;;;;14.73;5.13;;;;;;;;;;5042056;28;20398;-72
2023/07/14 05:17:48;;;;;;;12.65;5.40;;;;;;;;;;5045980;28;20052;-73
2023/07/14 05:20:15;;;;;;;12.02;4.43;;;;;;;;;;5042410;28;20041;-72
2023/07/14 05:22:43;;;;;;;12.15;4.85;;;;;;;;;;5049083;28;20021;-71
2023/07/14 05:25:09;;;;;;;12.90;4.35;;;;;;;;;;5046290;28;20044;-71
2023/07/14 05:27:38;;;;;;;15.38;5.45;;;;;;;;;;5068603;28;20039;-71
2023/07/14 05:30:05;;;;;;;12.80;4.45;;;;;;;;;;5042701;28;20037;-72
2023/07/14 05:32:32;;;;;;;13.50;4.85;;;;;;;;;;5050329;28;20029;-71
2023/07/14 05:34:58;;;;;;;12.88;4.55;;;;;;;;;;5043809;28;20083;-71
2023/07/14 05:37:24;;;;;;;11.57;4.60;;;;;;;;;;5043766;28;20076;-72
2023/07/14 05:39:51;;;;;;;12.75;4.57;;;;;;;;;;5054138;28;20037;-73
2023/07/14 05:42:17;;;;;;;10.73;4.80;;;;;;;;;;5046601;28;20444;-73
2023/07/14 05:44:44;;;;;;;11.80;5.18;;;;;;;;;;5047380;28;20040;-72
2023/07/14 05:47:10;;;;;;;10.15;4.82;;;;;;;;;;5029614;28;20055;-73
2023/07/14 05:49:36;;;;;;;13.07;4.93;;;;;;;;;;5049960;28;20013;-72
2023/07/14 05:52:03;;;;;;;11.60;5.40;;;;;;;;;;5060474;28;20025;-71
2023/07/14 05:54:31;;;;;;;13.88;5.57;;;;;;;;;;5044331;28;20033;-70
2023/07/14 05:56:57;;;;;;;13.60;5.25;;;;;;;;;;5046247;28;20033;-71
2023/07/14 05:59:23;;;;;;;17.77;5.80;;;;;;;;;;5042463;28;20082;-70
2023/07/14 06:01:49;;;;;;;19.67;5.45;;;;;;;;;;5045246;28;20045;-71
2023/07/14 06:04:16;;;;;;;15.45;5.88;;;;;;;;;;5054205;28;20053;-71
2023/07/14 06:06:43;;;;;;;17.23;6.03;;;;;;;;;;5045681;28;20028;-71
2023/07/14 06:09:09;;;;;;;13.82;5.55;;;;;;;;;;5047474;28;20033;-73
2023/07/14 06:11:35;;;;;;;14.68;5.88;;;;;;;;;;5063239;28;20147;-72
2023/07/14 06:14:02;;;;;;;17.55;6.88;;;;;;;;;;5046415;28;21592;-71
2023/07/14 06:16:28;;;;;;;14.27;5.68;;;;;;;;;;5047890;28;20048;-73
2023/07/14 06:18:55;;;;;;;15.23;5.65;;;;;;;;;;5048450;28;20053;-72
2023/07/14 06:21:21;;;;;;;13.20;6.15;;;;;;;;;;5044253;28;20041;-70
2023/07/14 06:23:47;;;;;;;16.13;5.68;;;;;;;;;;5056376;28;20018;-71
2023/07/14 06:26:14;;;;;;;14.25;5.72;;;;;;;;;;5042147;28;20037;-72
2023/07/14 06:28:42;;;;;;;11.93;5.78;;;;;;;;;;5043214;28;20036;-70
2023/07/14 06:31:10;;;;;;;12.50;5.90;;;;;;;;;;5040722;28;20056;-71
2023/07/14 06:33:36;;;;;;;15.90;6.25;;;;;;;;;;5052307;28;20029;-71
2023/07/14 06:36:03;;;;;;;20.13;6.95;;;;;;;;;;5044463;28;20061;-71
2023/07/14 06:38:29;;;;;;;14.13;6.07;;;;;;;;;;5047135;28;20071;-71
2023/07/14 06:40:57;;;;;;;13.95;5.78;;;;;;;;;;5049585;28;20533;-72
2023/07/14 06:43:23;;;;;;;13.68;6.07;;;;;;;;;;5042780;28;20025;-71
2023/07/14 06:45:49;;;;;;;14.73;6.95;;;;;;;;;;5048707;28;20037;-71
2023/07/14 06:48:15;;;;;;;18.55;7.35;;;;;;;;;;5050093;28;20083;-72
2023/07/14 06:50:42;;;;;;;14.77;7.63;;;;;;;;;;5055043;28;20094;-72
2023/07/14 06:53:08;;;;;;;15.88;7.32;;;;;;;;;;5064033;28;20090;-71
2023/07/14 06:55:37;;;;;;;16.25;7.38;;;;;;;;;;5061745;28;20025;-72
2023/07/14 06:58:04;;;;;;;15.88;7.88;;;;;;;;;;5046804;28;20486;-73
2023/07/14 07:00:31;;;;;;;17.40;7.78;;;;;;;;;;5038613;28;20029;-70
2023/07/14 07:02:58;;;;;;;15.10;7.50;;;;;;;;;;5043231;28;20509;-71
2023/07/14 07:05:24;;;;;;;19.58;8.10;;;;;;;;;;5050198;28;20060;-71
2023/07/14 07:07:51;;;;;;;18.15;7.38;;;;;;;;;;5049592;28;20028;-71
2023/07/14 07:10:17;;;;;;;15.77;7.75;;;;;;;;;;5047490;28;20044;-70
2023/07/14 07:12:44;;;;;;;16.00;7.40;;;;;;;;;;5031074;28;20095;-69
2023/07/14 07:15:10;;;;;;;16.33;8.48;;;;;;;;;;5030022;28;20299;-70
2023/07/14 07:17:39;;;;;;;13.50;8.18;;;;;;;;;;5031748;28;20037;-70
2023/07/14 07:20:07;;;;;;;15.93;7.82;;;;;;;;;;5033724;28;20060;-70
2023/07/14 07:22:33;;;;;;;16.73;8.00;;;;;;;;;;5041642;28;20237;-71
2023/07/14 07:24:59;;;;;;;20.45;8.88;;;;;;;;;;5041121;28;20053;-70
2023/07/14 07:27:25;;;;;;;20.08;8.68;;;;;;;;;;5025205;28;20022;-70
2023/07/14 07:29:51;;;;;;;17.42;9.40;;;;;;;;;;5045754;28;20490;-71
2023/07/14 07:32:18;;;;;;;17.65;8.45;;;;;;;;;;5039039;28;20045;-69
2023/07/14 07:34:44;;;;;;;15.50;9.60;;;;;;;;;;5042949;28;20035;-73
2023/07/14 07:37:13;;;;;;;16.90;9.55;;;;;;;;;;5049047;28;20021;-70
2023/07/14 07:39:39;;;;;;;17.98;9.02;;;;;;;;;;5042764;28;20033;-71
2023/07/14 07:42:08;;;;;;;21.00;9.65;;;;;;;;;;5062328;28;20116;-71
2023/07/14 07:44:34;;;;;;;17.58;8.98;;;;;;;;;;5048291;28;20028;-71
2023/07/14 07:47:01;;;;;;;16.63;9.25;;;;;;;;;;5047212;28;20078;-71
2023/07/14 07:49:27;;;;;;;18.88;9.77;;;;;;;;;;5046476;28;20041;-72
2023/07/14 07:51:53;;;;;;;19.30;9.50;;;;;;;;;;5041658;28;20052;-72
2023/07/14 07:54:21;;;;;;;16.52;9.30;;;;;;;;;;5041262;28;20068;-71
2023/07/14 07:56:49;;;;;;;15.07;9.00;;;;;;;;;;5030166;28;20048;-71
2023/07/14 07:59:15;;;;;;;21.60;9.70;;;;;;;;;;5047558;28;20025;-72
2023/07/14 08:01:42;;;;;;;21.80;9.73;;;;;;;;;;5050501;28;20120;-72
2023/07/14 08:04:09;;;;;;;22.73;9.93;;;;;;;;;;5050272;28;20098;-71
2023/07/14 08:06:36;;;;;;;18.45;10.13;;;;;;;;;;5065750;28;20390;-71
2023/07/14 08:09:03;;;;;;;21.67;10.65;;;;;;;;;;5048006;28;20360;-73
2023/07/14 08:11:30;;;;;;;18.27;9.48;;;;;;;;;;5057583;28;20030;-71
2023/07/14 08:13:59;;;;;;;17.80;9.15;;;;;;;;;;5044255;28;20013;-71
2023/07/14 08:16:25;;;;;;;18.25;9.20;;;;;;;;;;5050055;28;20083;-71
2023/07/14 08:18:51;;;;;;;19.52;8.68;;;;;;;;;;5064706;28;20541;-71
2023/07/14 08:21:18;;;;;;;16.85;8.45;;;;;;;;;;5048418;28;20036;-72
2023/07/14 08:23:44;;;;;;;20.75;9.38;;;;;;;;;;5048697;28;20470;-72
2023/07/14 08:26:11;;;;;;;24.15;9.18;;;;;;;;;;5048738;28;20052;-72
2023/07/14 08:28:37;;;;;;;23.17;8.27;;;;;;;;;;5036625;28;20137;-72
2023/07/14 08:31:06;;;;;;;18.48;8.60;;;;;;;;;;5028860;28;20049;-71
2023/07/14 08:33:32;;;;;;;14.77;8.82;;;;;;;;;;5049117;28;20032;-72
2023/07/14 08:36:00;;;;;;;21.70;9.13;;;;;;;;;;5049150;28;20021;-71
2023/07/14 08:38:27;;;;;;;20.52;9.20;;;;;;;;;;5063086;28;20065;-72
2023/07/14 08:40:57;;;;;;;17.15;8.55;;;;;;;;;;5043474;28;20087;-71
2023/07/14 08:43:43;;;;;;;15.98;9.48;;;;;;;;;;5043920;28;20090;-71
2023/07/14 08:46:35;;;;;;;20.20;8.77;;;;;;;;;;5017753;28;20383;-71
2023/07/14 08:49:05;;;;;;;15.93;8.55;;;;;;;;;;5028742;28;20080;-71
2023/07/14 08:51:34;;;;;;;16.00;8.70;;;;;;;;;;5043812;28;20029;-71
2023/07/14 08:54:03;;;;;;;17.40;8.15;;;;;;;;;;5047789;28;20098;-72
2023/07/14 08:56:34;;;;;;;13.73;7.20;;;;;;;;;;5047509;28;20060;-71
2023/07/14 08:59:00;;;;;;;16.75;7.68;;;;;;;;;;5048719;28;20083;-72
2023/07/14 09:01:34;;;;;;;20.20;8.00;;;;;;;;;;5045974;28;20025;-72
2023/07/14 09:04:03;;;;;;;15.18;7.90;;;;;;;;;;5041408;28;20152;-72
2023/07/14 09:06:34;;;;;;;15.25;7.13;;;;;;;;;;5042340;28;20044;-71
2023/07/14 09:09:01;;;;;;;13.30;6.50;;;;;;;;;;5047965;28;20040;-72
2023/07/14 09:11:35;;;;;;;16.17;7.90;;;;;;;;;;5031712;28;20087;-72
2023/07/14 09:14:08;;;;;;;13.18;6.63;;;;;;;;;;5038147;28;20407;-71
2023/07/14 09:16:36;;;;;;;15.63;7.30;;;;;;;;;;5039534;28;20037;-72
2023/07/14 09:19:06;;;;;;;14.13;7.10;;;;;;;;;;5063202;28;20059;-72
2023/07/14 09:21:39;;;;;;;13.98;6.70;;;;;;;;;;5043442;28;20040;-72
2023/07/14 09:24:05;;;;;;;11.85;6.75;;;;;;;;;;5047942;28;20486;-72
2023/07/14 09:26:33;;;;;;;13.00;7.22;;;;;;;;;;5049532;28;20036;-72
2023/07/14 09:29:00;;;;;;;14.40;7.10;;;;;;;;;;5050648;28;20032;-71
2023/07/14 09:31:38;;;;;;;16.20;7.40;;;;;;;;;;5048531;28;20029;-71
2023/07/14 09:34:09;;;;;;;11.32;6.20;;;;;;;;;;5066568;28;20021;-72
2023/07/14 09:36:38;;;;;;;16.88;7.10;;;;;;;;;;5051942;28;20036;-72
2023/07/14 09:39:07;;;;;;;16.20;7.20;;;;;;;;;;5046196;28;20033;-72
2023/07/14 09:41:33;;;;;;;13.90;7.07;;;;;;;;;;5031222;28;20026;-71
2023/07/14 09:43:59;;;;;;;13.43;6.90;;;;;;;;;;5046002;28;20037;-72
2023/07/14 09:46:29;;;;;;;18.85;7.68;;;;;;;;;;5049306;28;20033;-72
2023/07/14 09:49:04;;;;;;;13.48;6.72;;;;;;;;;;5064763;28;20037;-71
2023/07/14 09:51:30;;;;;;;17.08;7.00;;;;;;;;;;5046380;28;20033;-71
2023/07/14 09:54:07;;;;;;;14.88;6.60;;;;;;;;;;5048605;28;20029;-71
2023/07/14 09:56:42;;;;;;;13.05;6.63;;;;;;;;;;5049023;28;20315;-73
2023/07/14 09:59:18;;;;;;;14.05;6.80;;;;;;;;;;5048451;28;20036;-71
2023/07/14 10:01:55;;;;;;;13.65;6.43;;;;;;;;;;5036964;28;20013;-71
2023/07/14 10:04:26;;;;;;;14.15;6.45;;;;;;;;;;5040970;28;20104;-72
2023/07/14 10:06:52;;;;;;;9.82;5.90;;;;;;;;;;5045245;28;20140;-72
2023/07/14 10:09:20;;;;;;;12.35;5.00;;;;;;;;;;5036946;28;20041;-72
2023/07/14 10:11:54;;;;;;;11.27;4.85;;;;;;;;;;5037380;28;20033;-73
2023/07/14 10:14:36;;;;;;;18.63;5.82;;;;;;;;;;5044439;28;20029;-71
2023/07/14 10:17:04;;;;;;;14.15;5.68;;;;;;;;;;5051149;28;20193;-72
2023/07/14 10:19:40;;;;;;;16.95;6.50;;;;;;;;;;5037271;28;20064;-71
2023/07/14 10:22:18;;;;;;;12.50;6.07;;;;;;;;;;5048988;28;20032;-72
2023/07/14 10:24:45;;;;;;;10.07;5.10;;;;;;;;;;5048066;28;20562;-71
2023/07/14 10:27:18;;;;;;;9.85;4.55;;;;;;;;;;5067224;28;20033;-71
2023/07/14 10:29:44;;;;;;;10.55;4.13;;;;;;;;;;5051350;28;20044;-72
2023/07/14 10:32:12;;;;;;;10.23;4.57;;;;;;;;;;5050840;28;20428;-72
2023/07/14 10:34:41;;;;;;;8.60;4.05;;;;;;;;;;5064717;28;20036;-71
2023/07/14 10:37:18;;;;;;;7.97;4.45;;;;;;;;;;5050286;28;20108;-73
2023/07/14 10:39:46;;;;;;;11.50;4.85;;;;;;;;;;5049026;28;20488;-72
2023/07/14 10:42:17;;;;;;;11.02;4.43;;;;;;;;;;5048241;28;20032;-71
2023/07/14 10:44:43;;;;;;;;;;;;;;;;;;5049505;28;20231;-71
2023/07/14 10:47:17;;;;;;;10.45;4.05;;;;;;;;;;5033799;28;19913;-72
2023/07/14 10:49:46;;;;;;;9.43;3.90;;;;;;;;;;5032089;28;20025;-72
2023/07/14 10:52:20;;;;;;;10.35;4.22;;;;;;;;;;5046845;28;20136;-71
2023/07/14 10:54:46;;;;;;;9.85;4.00;;;;;;;;;;5044840;28;20470;-72
2023/07/14 10:57:21;;;;;;;8.57;4.10;;;;;;;;;;5048920;28;20111;-72
2023/07/14 10:59:51;;;;;;;7.10;3.72;;;;;;;;;;5047618;28;20770;-71
2023/07/14 11:02:28;;;;;;;11.57;4.00;;;;;;;;;;5046204;28;20025;-71
2023/07/14 11:05:00;;;;;;;9.63;4.47;;;;;;;;;;5032168;28;20447;-71
2023/07/14 11:07:29;;;;;;;11.18;4.20;;;;;;;;;;5032038;28;20045;-71
2023/07/14 11:09:56;;;;;;;26.45;5.35;;;;;;;;;;5030120;28;20034;-72
2023/07/14 11:12:38;;;;;;;10.15;4.95;;;;;;;;;;5044544;28;20018;-71
2023/07/14 11:15:15;;;;;;;9.27;4.70;;;;;;;;;;5052035;28;20124;-71
2023/07/14 11:17:56;;;;;;;12.27;4.85;;;;;;;;;;5045676;28;20041;-71
2023/07/14 11:20:26;;;;;;;10.27;4.60;;;;;;;;;;5043729;28;20053;-72
2023/07/14 11:22:57;;;;;;;11.63;4.93;;;;;;;;;;5042774;28;20033;-73
2023/07/14 11:25:23;;;;;;;12.45;5.50;;;;;;;;;;5032472;28;20068;-70
2023/07/14 11:28:07;;;;;;;7.97;3.97;;;;;;;;;;5029682;28;20037;-72
2023/07/14 11:30:39;;;;;;;9.93;4.10;;;;;;;;;;5031485;28;20088;-72
2023/07/14 11:33:25;;;;;;;10.30;3.85;;;;;;;;;;5040793;28;20036;-72
2023/07/14 11:35:57;;;;;;;11.15;4.30;;;;;;;;;;5036212;28;20040;-72
2023/07/14 11:38:29;;;;;;;9.98;4.35;;;;;;;;;;5030291;28;20038;-75
2023/07/14 11:40:56;;;;;;;12.27;4.63;;;;;;;;;;5037043;28;20054;-72
2023/07/14 11:43:25;;;;;;;11.43;4.45;;;;;;;;;;5040221;28;20029;-72
2023/07/14 11:45:59;;;;;;;7.75;3.90;;;;;;;;;;5033312;28;20037;-72
2023/07/14 11:48:46;;;;;;;9.20;3.97;;;;;;;;;;5040829;28;20071;-72
2023/07/14 11:51:15;;;;;;;9.48;3.92;;;;;;;;;;5017352;28;20136;-71
2023/07/14 11:53:45;;;;;;;10.20;3.72;;;;;;;;;;5050900;28;20025;-71
2023/07/14 11:56:14;;;;;;;10.43;4.07;;;;;;;;;;5036520;28;20572;-71
2023/07/14 11:58:40;;;;;;;10.55;5.00;;;;;;;;;;5035178;28;20029;-71
2023/07/14 12:01:16;;;;;;;10.23;4.97;;;;;;;;;;5036010;28;20139;-73
2023/07/14 12:03:48;;;;;;;11.25;5.75;;;;;;;;;;5036912;28;20041;-73
2023/07/14 12:06:22;;;;;;;10.30;5.15;;;;;;;;;;5040706;28;20041;-73
2023/07/14 12:09:11;;;;;;;11.38;5.25;;;;;;;;;;5037462;28;20021;-74
2023/07/14 12:11:40;;;;;;;11.70;5.50;;;;;;;;;;5040383;28;20051;-74
2023/07/14 12:14:26;;;;;;;9.80;5.00;;;;;;;;;;5036837;28;20116;-74
2023/07/14 12:16:52;;;;;;;12.50;5.80;;;;;;;;;;5038523;28;20137;-73
2023/07/14 12:19:26;;;;;;;12.73;5.93;;;;;;;;;;5040073;28;20108;-73
2023/07/14 12:21:56;;;;;;;10.05;5.45;;;;;;;;;;5041086;28;20074;-73
2023/07/14 12:24:27;;;;;;;10.80;4.75;;;;;;;;;;5035046;28;20025;-73
2023/07/14 12:27:02;;;;;;;6.93;4.05;;;;;;;;;;5040277;28;20017;-73
2023/07/14 12:29:28;;;;;;;8.68;4.40;;;;;;;;;;5036813;28;20023;-71
2023/07/14 12:31:56;;;;;;;8.48;4.32;;;;;;;;;;5034783;28;20123;-72
2023/07/14 12:34:24;;;;;;;8.18;4.47;;;;;;;;;;5040082;28;20029;-72
2023/07/14 12:36:50;;;;;;;13.30;4.80;;;;;;;;;;5033753;28;20029;-72
2023/07/14 12:39:17;;;;;;;14.63;4.90;;;;;;;;;;5033192;28;20109;-71
2023/07/14 12:41:46;;;;;;;9.25;4.20;;;;;;;;;;5026586;28;20048;-72
2023/07/14 12:44:21;;;;;;;6.45;3.55;;;;;;;;;;5039237;28;20034;-72
2023/07/14 12:46:47;;;;;;;9.20;4.18;;;;;;;;;;5041035;28;20116;-73
2023/07/14 12:49:13;;;;;;;9.20;3.60;;;;;;;;;;5032492;28;20041;-73
2023/07/14 12:51:41;;;;;;;8.80;3.72;;;;;;;;;;5041524;28;20074;-72
2023/07/14 12:54:13;;;;;;;10.25;4.50;;;;;;;;;;5037914;28;20048;-74
2023/07/14 12:56:39;;;;;;;10.65;4.22;;;;;;;;;;5042878;28;20560;-71
2023/07/14 12:59:12;;;;;;;11.75;4.60;;;;;;;;;;5037712;28;20498;-72
2023/07/14 13:01:42;;;;;;;9.75;4.10;;;;;;;;;;5042436;28;20056;-70
2023/07/14 13:04:10;;;;;;;9.32;4.55;;;;;;;;;;5046855;28;20114;-73
2023/07/14 13:06:36;;;;;;;7.35;3.67;;;;;;;;;;5048116;28;20614;-71
2023/07/14 13:09:08;;;;;;;8.13;3.47;;;;;;;;;;5046637;28;20767;-72
2023/07/14 13:11:37;;;;;;;17.45;5.60;;;;;;;;;;5043642;28;20094;-72
2023/07/14 13:14:04;;;;;;;7.23;3.97;;;;;;;;;;5036732;28;20021;-72
2023/07/14 13:16:34;;;;;;;9.68;4.47;;;;;;;;;;5046144;28;20072;-72
2023/07/14 13:19:00;;;;;;;;;;;;;;;;;;5046280;28;20126;-73
2023/07/14 13:21:31;;;;;;;9.93;4.55;;;;;;;;;;5045100;28;20402;-72
2023/07/14 13:24:07;;;;;;;9.48;4.55;;;;;;;;;;5046400;28;20104;-72
2023/07/14 13:26:46;;;;;;;8.63;4.22;;;;;;;;;;5045708;28;20055;-72
2023/07/14 13:29:15;;;;;;;9.68;4.38;;;;;;;;;;5047575;28;20040;-72
2023/07/14 13:31:43;;;;;;;12.90;4.63;;;;;;;;;;5036426;28;20048;-71
2023/07/14 13:34:28;;;;;;;7.78;4.07;;;;;;;;;;5061753;28;20036;-71
2023/07/14 13:36:54;;;;;;;6.80;3.60;;;;;;;;;;5050347;28;20025;-72
2023/07/14 13:39:22;;;;;;;7.90;3.85;;;;;;;;;;5046453;28;20131;-73
2023/07/14 13:41:49;;;;;;;10.10;3.60;;;;;;;;;;5053312;28;20032;-72
2023/07/14 13:44:31;;;;;;;8.68;3.38;;;;;;;;;;5043293;28;20093;-71
2023/07/14 13:47:15;;;;;;;4.72;3.20;;;;;;;;;;5035952;28;20057;-73
2023/07/14 13:49:42;;;;;;;6.97;3.30;;;;;;;;;;5035767;28;20037;-72
2023/07/14 13:52:13;;;;;;;8.13;3.33;;;;;;;;;;5046558;28;20029;-72
2023/07/14 13:54:40;;;;;;;7.38;3.80;;;;;;;;;;5047344;28;20067;-72
2023/07/14 13:57:09;;;;;;;6.25;3.53;;;;;;;;;;5022404;28;20077;-72
2023/07/14 13:59:36;;;;;;;7.03;3.90;;;;;;;;;;5047405;28;20036;-71
2023/07/14 14:02:09;;;;;;;7.72;3.60;;;;;;;;;;5047456;28;20088;-72
2023/07/14 14:04:35;;;;;;;4.63;2.90;;;;;;;;;;5062147;28;20123;-73
2023/07/14 14:07:01;;;;;;;7.50;3.20;;;;;;;;;;5047731;28;20033;-72
2023/07/14 14:09:28;;;;;;;7.07;3.03;;;;;;;;;;5067581;28;20083;-72
2023/07/14 14:11:54;;;;;;;5.50;3.05;;;;;;;;;;5046645;28;20040;-70
2023/07/14 14:14:20;;;;;;;9.25;3.10;;;;;;;;;;5038180;28;20037;-71
2023/07/14 14:16:50;;;;;;;8.80;3.25;;;;;;;;;;5044558;28;20032;-71
2023/07/14 14:19:22;;;;;;;11.40;3.40;;;;;;;;;;5049184;28;20055;-71
2023/07/14 14:21:49;;;;;;;10.90;3.33;;;;;;;;;;5041887;28;20084;-73
2023/07/14 14:24:16;;;;;;;10.68;3.50;;;;;;;;;;5075712;28;20017;-71
2023/07/14 14:26:43;;;;;;;5.25;3.08;;;;;;;;;;5049545;28;20018;-72
2023/07/14 14:29:09;;;;;;;8.20;3.10;;;;;;;;;;5042003;28;20025;-75
2023/07/14 14:31:36;;;;;;;9.88;3.08;;;;;;;;;;5054182;28;20078;-72
2023/07/14 14:34:02;;;;;;;7.80;3.05;;;;;;;;;;5061720;28;20049;-72
2023/07/14 14:36:28;;;;;;;12.23;3.30;;;;;;;;;;5069863;28;20044;-72
2023/07/14 14:38:56;;;;;;;5.68;2.92;;;;;;;;;;5051641;28;20112;-74
2023/07/14 14:41:28;;;;;;;9.38;3.08;;;;;;;;;;5045011;28;20033;-75
2023/07/14 14:43:55;;;;;;;5.93;2.80;;;;;;;;;;5046748;28;20405;-70